Time;durP1;ratioP1;P1;durP2;ratioP2;P2;SDS_P1;SDS_P2;PMS_P1;PMS_P2;Temp;Humidity;BMP_temperature;BMP_pressure;BME280_temperature;BME280_humidity;BME280_pressure;Samples;Min_cycle;Max_cycle;Signal;HPM_P1;HPM_P2
2023/10/14 00:01:36;;;;;;;12.43;8.90;;;13.80;99.90;;;;;;5112370;28;20260;-79
2023/10/14 00:04:04;;;;;;;12.13;8.90;;;13.80;99.90;;;;;;5114259;28;20176;-77
2023/10/14 00:06:34;;;;;;;14.00;9.13;;;13.80;99.90;;;;;;5112987;28;20173;-79
2023/10/14 00:09:06;;;;;;;11.37;8.50;;;13.80;99.90;;;;;;5112320;28;20552;-78
2023/10/14 00:11:46;;;;;;;13.90;9.60;;;13.70;99.90;;;;;;5113021;28;20598;-76
2023/10/14 00:14:17;;;;;;;11.07;8.17;;;13.60;99.90;;;;;;5113914;28;20217;-77
2023/10/14 00:16:49;;;;;;;12.23;8.30;;;13.60;99.90;;;;;;5129997;28;20192;-76
2023/10/14 00:19:17;;;;;;;12.23;8.33;;;13.60;99.90;;;;;;5116268;28;20366;-77
2023/10/14 00:21:44;;;;;;;13.17;8.50;;;13.60;99.90;;;;;;5112862;28;20564;-77
2023/10/14 00:24:15;;;;;;;11.80;8.17;;;13.60;99.90;;;;;;5113380;28;20629;-80
2023/10/14 00:26:41;;;;;;;14.47;7.93;;;13.50;99.90;;;;;;5112946;28;20602;-77
2023/10/14 00:31:44;;;;;;;10.77;7.73;;;13.60;99.90;;;;;;5117342;28;20168;-77
2023/10/14 00:34:10;;;;;;;11.50;8.33;;;13.50;99.90;;;;;;5116172;28;20555;-79
2023/10/14 00:36:36;;;;;;;9.57;7.63;;;13.50;99.90;;;;;;5116406;28;20169;-77
2023/10/14 00:39:12;;;;;;;9.10;7.27;;;13.40;99.90;;;;;;5117598;28;20165;-78
2023/10/14 00:41:39;;;;;;;12.20;7.97;;;13.40;99.90;;;;;;5131639;28;20175;-77
2023/10/14 00:44:05;;;;;;;10.57;8.70;;;13.40;99.90;;;;;;5128419;28;20174;-77
2023/10/14 00:46:33;;;;;;;11.07;7.87;;;13.30;99.90;;;;;;5103027;28;20524;-78
2023/10/14 00:49:10;;;;;;;8.40;7.50;;;13.30;99.90;;;;;;5101590;28;20174;-78
2023/10/14 00:51:42;;;;;;;10.97;8.23;;;13.30;99.90;;;;;;5122917;28;20534;-78
2023/10/14 00:54:10;;;;;;;13.90;8.63;;;13.20;99.90;;;;;;5118447;28;20194;-77
2023/10/14 00:56:40;;;;;;;9.67;8.20;;;13.20;99.90;;;;;;5116146;28;20182;-75
2023/10/14 00:59:08;;;;;;;9.93;8.20;;;13.20;99.90;;;;;;5123151;28;20185;-78
2023/10/14 01:01:55;;;;;;;9.13;8.10;;;13.20;99.90;;;;;;5120911;28;20170;-79
2023/10/14 01:04:22;;;;;;;12.57;8.10;;;13.20;99.90;;;;;;5117824;28;20154;-77
2023/10/14 01:06:55;;;;;;;13.90;8.80;;;13.20;99.90;;;;;;5116449;28;20186;-78
2023/10/14 01:09:31;;;;;;;9.67;8.40;;;13.30;99.90;;;;;;5116061;28;20158;-77
2023/10/14 01:12:03;;;;;;;13.43;8.53;;;13.20;99.90;;;;;;5116131;28;20168;-76
2023/10/14 01:14:30;;;;;;;11.70;8.23;;;13.20;99.90;;;;;;5115673;28;20249;-77
2023/10/14 01:16:57;;;;;;;11.97;8.17;;;13.20;99.90;;;;;;5116641;28;20165;-76
2023/10/14 01:19:22;;;;;;;13.10;8.47;;;13.20;99.90;;;;;;5123168;28;20580;-77
2023/10/14 01:21:51;;;;;;;11.03;8.20;;;13.20;99.90;;;;;;5120678;28;20170;-77
2023/10/14 01:24:18;;;;;;;13.03;8.23;;;13.30;99.90;;;;;;5099463;28;20709;-78
2023/10/14 01:29:31;;;;;;;14.20;7.63;;;13.30;99.90;;;;;;5115524;28;20657;-74
2023/10/14 01:32:10;;;;;;;12.00;7.23;;;13.40;99.90;;;;;;5115051;28;20653;-78
2023/10/14 01:34:42;;;;;;;8.47;6.20;;;13.40;99.90;;;;;;5096782;28;20216;-78
2023/10/14 01:37:18;;;;;;;9.70;6.73;;;13.40;99.90;;;;;;5115015;28;20162;-76
2023/10/14 01:39:56;;;;;;;9.80;6.23;;;13.50;99.90;;;;;;5125671;28;20177;-77
2023/10/14 01:42:22;;;;;;;8.70;6.20;;;13.50;99.90;;;;;;5096579;28;20173;-77
2023/10/14 01:44:53;;;;;;;8.00;6.40;;;13.50;99.90;;;;;;5114455;28;20166;-78
2023/10/14 01:47:20;;;;;;;7.43;6.47;;;13.50;99.90;;;;;;5115110;28;20169;-76
2023/10/14 01:49:46;;;;;;;8.23;6.70;;;13.50;99.90;;;;;;5114943;28;20166;-78
2023/10/14 01:52:15;;;;;;;9.47;6.40;;;13.50;99.90;;;;;;5114804;28;20533;-76
2023/10/14 01:54:41;;;;;;;9.07;6.73;;;13.50;99.90;;;;;;5114869;28;20201;-77
2023/10/14 01:57:16;;;;;;;9.23;6.47;;;13.40;99.90;;;;;;5114806;28;20239;-76
2023/10/14 01:59:45;;;;;;;8.07;6.63;;;13.40;99.90;;;;;;5114624;28;20239;-78
2023/10/14 02:02:15;;;;;;;9.93;6.57;;;13.30;99.90;;;;;;5114822;28;20166;-77
2023/10/14 02:04:45;;;;;;;9.90;6.80;;;13.30;99.90;;;;;;5096564;28;20664;-76
2023/10/14 02:07:21;;;;;;;7.97;6.47;;;13.30;99.90;;;;;;5114682;28;20238;-77
2023/10/14 02:09:48;;;;;;;10.77;6.93;;;13.20;99.90;;;;;;5114667;28;20197;-77
2023/10/14 02:12:15;;;;;;;7.97;6.50;;;13.20;99.90;;;;;;5114321;28;20313;-80
2023/10/14 02:14:56;;;;;;;8.83;7.20;;;13.20;99.90;;;;;;5096827;28;20186;-77
2023/10/14 02:17:24;;;;;;;8.33;6.10;;;13.10;99.90;;;;;;5114221;28;20259;-78
2023/10/14 02:19:54;;;;;;;7.63;6.60;;;13.00;99.90;;;;;;5115198;28;20233;-77
2023/10/14 02:22:23;;;;;;;8.17;6.03;;;13.00;99.90;;;;;;5099889;28;20175;-77
2023/10/14 02:24:57;;;;;;;8.57;6.33;;;12.90;99.90;;;;;;5112364;28;20181;-76
2023/10/14 02:27:24;;;;;;;7.07;6.23;;;13.00;99.90;;;;;;5118423;28;20196;-75
2023/10/14 02:29:49;;;;;;;9.73;5.97;;;13.00;99.90;;;;;;5099903;28;20272;-75
2023/10/14 02:32:15;;;;;;;6.53;5.70;;;13.00;99.90;;;;;;5114796;28;20286;-77
2023/10/14 02:34:45;;;;;;;7.50;6.00;;;13.00;99.90;;;;;;5124066;28;20196;-78
2023/10/14 02:37:13;;;;;;;9.10;6.07;;;13.00;99.90;;;;;;5133296;28;20162;-75
2023/10/14 02:39:43;;;;;;;12.07;6.40;;;13.10;99.90;;;;;;5124047;28;20170;-76
2023/10/14 02:42:09;;;;;;;13.00;5.67;;;13.20;99.90;;;;;;5114666;28;20158;-76
2023/10/14 02:44:53;;;;;;;6.07;5.00;;;13.20;99.90;;;;;;5114158;28;20172;-78
2023/10/14 02:47:32;;;;;;;12.43;6.00;;;13.30;99.90;;;;;;5115469;28;20193;-76
2023/10/14 02:50:11;;;;;;;9.07;6.07;;;13.30;99.90;;;;;;5115119;28;20160;-78
2023/10/14 02:52:42;;;;;;;8.83;5.40;;;13.40;99.90;;;;;;5113481;28;20197;-77
2023/10/14 02:55:22;;;;;;;9.27;5.90;;;13.40;99.90;;;;;;5114017;28;20161;-77
2023/10/14 02:57:48;;;;;;;6.83;5.60;;;13.40;99.90;;;;;;5116523;28;20157;-77
2023/10/14 03:00:23;;;;;;;8.23;5.60;;;13.40;99.90;;;;;;5116920;28;20225;-78
2023/10/14 03:02:54;;;;;;;6.77;6.07;;;13.30;99.90;;;;;;5118019;28;20168;-79
2023/10/14 03:05:36;;;;;;;6.63;5.70;;;13.30;99.90;;;;;;5113721;28;20535;-77
2023/10/14 03:08:16;;;;;;;9.93;6.07;;;13.20;99.90;;;;;;5113644;28;20548;-78
2023/10/14 03:10:59;;;;;;;9.23;5.57;;;13.20;99.90;;;;;;5095564;28;20165;-78
2023/10/14 03:13:29;;;;;;;7.67;5.77;;;13.20;99.90;;;;;;5113793;28;20590;-77
2023/10/14 03:15:55;;;;;;;8.57;5.33;;;13.10;99.90;;;;;;5095057;28;20177;-79
2023/10/14 03:18:30;;;;;;;7.63;5.47;;;13.20;99.90;;;;;;5114024;28;20269;-79
2023/10/14 03:23:25;;;;;;;9.83;5.63;;;13.30;99.90;;;;;;5128184;28;20174;-77
2023/10/14 03:27:00;;;;;;;8.17;5.40;;;13.40;99.90;;;;;;5116893;28;20596;-78
2023/10/14 03:28:51;;;;;;;8.27;5.50;;;13.50;99.90;;;;;;5100174;28;20190;-75
2023/10/14 03:31:19;;;;;;;7.50;5.57;;;13.50;99.90;;;;;;5114070;28;20511;-78
2023/10/14 03:33:45;;;;;;;7.40;5.20;;;13.60;99.90;;;;;;5095240;28;20259;-79
2023/10/14 03:36:22;;;;;;;16.23;5.63;;;13.60;99.90;;;;;;5113052;28;20166;-78
2023/10/14 03:39:16;;;;;;;10.37;5.57;;;13.70;99.90;;;;;;5113024;28;20161;-78
2023/10/14 03:41:42;;;;;;;10.33;5.23;;;13.80;99.90;;;;;;5095407;28;20603;-78
2023/10/14 03:44:14;;;;;;;9.33;5.50;;;13.80;99.90;;;;;;5112864;28;20180;-77
2023/10/14 03:46:43;;;;;;;5.67;5.03;;;13.80;99.90;;;;;;5112912;28;20590;-77
2023/10/14 03:49:20;;;;;;;5.87;4.93;;;13.70;99.90;;;;;;5112745;28;20185;-77
2023/10/14 03:51:49;;;;;;;6.73;5.07;;;13.70;99.90;;;;;;5113097;28;20146;-77
2023/10/14 03:54:23;;;;;;;6.90;5.43;;;13.70;99.90;;;;;;5113223;28;20790;-78
2023/10/14 03:56:50;;;;;;;9.13;5.33;;;13.80;99.90;;;;;;5112947;28;20157;-77
2023/10/14 03:59:21;;;;;;;7.97;5.53;;;13.80;99.90;;;;;;5112959;28;20169;-77
2023/10/14 04:01:47;;;;;;;7.50;5.20;;;13.70;99.90;;;;;;5114529;28;20174;-77
2023/10/14 04:04:20;;;;;;;8.13;5.80;;;13.80;99.90;;;;;;5119502;28;20277;-79
2023/10/14 04:09:44;;;;;;;8.10;5.40;;;13.80;99.90;;;;;;5118317;28;20156;-78
2023/10/14 04:12:30;;;;;;;10.03;5.43;;;13.80;99.90;;;;;;5117043;28;20180;-78
2023/10/14 04:17:39;;;;;;;8.57;5.47;;;13.80;99.90;;;;;;5116846;28;20166;-77
2023/10/14 04:22:41;;;;;;;7.47;5.50;;;13.80;99.90;;;;;;5124694;28;20181;-76
2023/10/14 04:35:25;;;;;;;8.33;5.47;;;13.70;99.90;;;;;;5117666;28;20201;-80
2023/10/14 04:37:51;;;;;;;7.47;5.50;;;13.70;99.90;;;;;;5117126;28;20176;-79
2023/10/14 04:45:45;;;;;;;9.73;5.60;;;13.60;99.90;;;;;;5116341;28;20162;-77
2023/10/14 04:48:13;;;;;;;10.33;5.40;;;13.70;99.90;;;;;;5116856;28;20614;-78
2023/10/14 04:50:39;;;;;;;8.33;5.63;;;13.70;99.90;;;;;;5117903;28;20174;-78
2023/10/14 04:53:06;;;;;;;5.87;5.27;;;13.70;99.90;;;;;;5115813;28;20214;-77
2023/10/14 04:55:36;;;;;;;10.13;5.50;;;13.70;99.90;;;;;;5115903;28;20249;-77
2023/10/14 05:00:44;;;;;;;8.10;5.60;;;13.70;99.90;;;;;;5116359;28;20157;-79
2023/10/14 05:03:14;;;;;;;8.93;5.50;;;13.60;99.90;;;;;;5115951;28;20158;-77
2023/10/14 05:05:45;;;;;;;7.30;5.63;;;13.60;99.90;;;;;;5115947;28;20166;-76
2023/10/14 05:08:21;;;;;;;7.37;5.90;;;13.60;99.90;;;;;;5097162;28;20216;-77
2023/10/14 05:10:52;;;;;;;10.73;6.13;;;13.60;99.90;;;;;;5115572;28;20161;-77
2023/10/14 05:13:25;;;;;;;11.27;6.47;;;13.50;99.90;;;;;;5115932;28;20206;-78
2023/10/14 05:16:03;;;;;;;9.50;7.50;;;13.40;99.90;;;;;;5117883;28;20626;-77
2023/10/14 05:18:29;;;;;;;7.60;6.83;;;13.30;99.90;;;;;;5118644;28;20162;-78
2023/10/14 05:23:24;;;;;;;10.57;7.57;;;13.00;99.90;;;;;;5115699;28;20170;-77
2023/10/14 05:25:56;;;;;;;10.07;7.83;;;12.90;99.90;;;;;;5115671;28;20173;-76
2023/10/14 05:28:29;;;;;;;10.23;7.90;;;13.10;99.90;;;;;;5115527;28;20161;-76
2023/10/14 05:30:57;;;;;;;10.23;8.20;;;12.70;99.90;;;;;;5115423;28;20160;-79
2023/10/14 05:33:24;;;;;;;12.33;8.60;;;12.70;99.90;;;;;;5114843;28;20956;-78
2023/10/14 05:35:49;;;;;;;10.53;7.80;;;12.70;99.90;;;;;;5115016;28;20179;-77
2023/10/14 05:38:17;;;;;;;13.20;8.63;;;12.60;99.90;;;;;;5118127;28;20173;-76
2023/10/14 05:40:43;;;;;;;9.53;7.90;;;12.60;99.90;;;;;;5120705;28;20173;-78
2023/10/14 05:43:09;;;;;;;10.80;7.93;;;12.60;99.90;;;;;;5117907;28;20173;-77
2023/10/14 05:45:38;;;;;;;11.67;8.90;;;12.60;99.90;;;;;;5099214;28;20173;-78
2023/10/14 05:48:07;;;;;;;11.30;8.07;;;12.60;99.90;;;;;;5123304;28;20201;-78
2023/10/14 05:50:35;;;;;;;10.83;8.13;;;12.60;99.90;;;;;;5118776;28;20201;-79
2023/10/14 05:53:02;;;;;;;10.03;8.07;;;12.60;99.90;;;;;;5114597;28;20209;-78
2023/10/14 05:55:31;;;;;;;13.27;8.10;;;12.60;99.90;;;;;;5114723;28;20533;-80
2023/10/14 05:58:00;;;;;;;12.07;8.37;;;12.60;99.90;;;;;;5114436;28;20666;-77
2023/10/14 06:00:27;;;;;;;10.03;7.93;;;12.60;99.90;;;;;;5100752;28;20219;-78
2023/10/14 06:02:58;;;;;;;10.37;8.30;;;12.60;99.90;;;;;;5096414;28;20181;-78
2023/10/14 06:05:31;;;;;;;13.07;8.73;;;12.50;99.90;;;;;;5114510;28;20281;-78
2023/10/14 06:08:00;;;;;;;11.93;8.67;;;12.60;99.90;;;;;;5114607;28;20210;-78
2023/10/14 06:10:36;;;;;;;9.27;8.17;;;12.60;99.90;;;;;;5132122;28;20201;-79
2023/10/14 06:13:05;;;;;;;10.73;8.23;;;12.60;99.90;;;;;;5122951;28;20201;-78
2023/10/14 06:15:36;;;;;;;10.70;7.67;;;12.60;99.90;;;;;;5117415;28;20521;-78
2023/10/14 06:18:04;;;;;;;12.20;8.73;;;12.60;99.90;;;;;;5115446;28;20560;-78
2023/10/14 06:20:32;;;;;;;11.17;8.43;;;12.60;99.90;;;;;;5115794;28;20225;-77
2023/10/14 06:22:59;;;;;;;11.93;8.20;;;12.60;99.90;;;;;;5114619;28;20174;-76
2023/10/14 06:25:29;;;;;;;12.50;8.87;;;12.60;99.90;;;;;;5114487;28;20206;-76
2023/10/14 06:27:55;;;;;;;11.47;8.13;;;12.60;99.90;;;;;;5113953;28;20186;-78
2023/10/14 06:30:21;;;;;;;10.73;8.37;;;12.60;99.90;;;;;;5114457;28;20241;-77
2023/10/14 06:33:04;;;;;;;12.10;8.40;;;12.70;99.90;;;;;;5114116;28;20193;-78
2023/10/14 06:35:32;;;;;;;12.63;8.30;;;12.70;99.90;;;;;;5114478;28;20181;-78
2023/10/14 06:37:58;;;;;;;9.63;8.13;;;12.70;99.90;;;;;;5114116;28;20252;-77
2023/10/14 06:40:24;;;;;;;12.37;9.23;;;12.70;99.90;;;;;;5113993;28;20264;-77
2023/10/14 06:42:53;;;;;;;10.90;8.40;;;12.80;99.90;;;;;;5114126;28;20177;-78
2023/10/14 06:45:21;;;;;;;10.27;8.03;;;12.80;99.90;;;;;;5113805;28;20280;-76
2023/10/14 06:47:51;;;;;;;10.47;8.00;;;12.80;99.90;;;;;;5114116;28;20588;-79
2023/10/14 06:50:23;;;;;;;11.03;8.43;;;12.90;99.90;;;;;;5118154;28;20185;-79
2023/10/14 06:52:53;;;;;;;25.27;15.37;;;12.90;99.90;;;;;;5117379;28;20208;-78
2023/10/14 06:55:22;;;;;;;11.43;8.70;;;13.00;99.90;;;;;;5116246;28;20590;-78
2023/10/14 06:57:53;;;;;;;10.10;7.63;;;13.10;99.90;;;;;;5123248;28;20170;-78
2023/10/14 07:00:25;;;;;;;9.40;7.53;;;13.10;99.90;;;;;;5114394;28;20598;-77
2023/10/14 07:02:54;;;;;;;12.83;8.67;;;13.20;99.90;;;;;;5114341;28;20162;-78
2023/10/14 07:05:20;;;;;;;10.87;7.73;;;13.20;99.90;;;;;;5121372;28;20169;-78
2023/10/14 07:07:50;;;;;;;9.30;7.80;;;13.30;99.90;;;;;;5114325;28;20173;-78
2023/10/14 07:10:17;;;;;;;9.13;7.77;;;13.40;99.90;;;;;;5116362;28;20166;-78
2023/10/14 07:12:43;;;;;;;9.43;7.40;;;13.50;99.90;;;;;;5116441;28;20296;-79
2023/10/14 07:15:12;;;;;;;11.43;7.90;;;13.60;99.90;;;;;;5128182;28;20186;-79
2023/10/14 07:17:43;;;;;;;10.20;8.10;;;13.60;99.90;;;;;;5114633;28;20205;-78
2023/10/14 07:20:12;;;;;;;8.33;7.53;;;13.70;99.90;;;;;;5113203;28;20646;-77
2023/10/14 07:22:42;;;;;;;9.40;7.57;;;13.80;99.90;;;;;;5113860;28;20633;-77
2023/10/14 07:25:12;;;;;;;14.63;8.20;;;13.90;99.90;;;;;;5115471;28;20177;-76
2023/10/14 07:27:38;;;;;;;13.67;8.43;;;14.00;99.90;;;;;;5120256;28;20204;-76
2023/10/14 07:30:16;;;;;;;9.53;7.63;;;14.10;99.90;;;;;;5112759;28;20243;-78
2023/10/14 07:32:46;;;;;;;8.87;7.63;;;14.20;99.90;;;;;;5120316;28;20192;-77
2023/10/14 07:35:16;;;;;;;8.17;7.33;;;14.20;99.90;;;;;;5116046;28;20173;-76
2023/10/14 07:37:45;;;;;;;13.20;7.13;;;14.40;99.90;;;;;;5113376;28;20185;-80
2023/10/14 07:40:22;;;;;;;14.27;9.90;;;14.40;99.90;;;;;;5113394;28;20173;-77
2023/10/14 07:42:56;;;;;;;18.27;13.40;;;14.60;99.90;;;;;;5114663;28;20153;-76
2023/10/14 07:45:33;;;;;;;21.10;15.17;;;14.60;99.90;;;;;;5113604;28;20173;-78
2023/10/14 07:48:00;;;;;;;11.40;8.77;;;14.70;99.90;;;;;;5117359;28;20154;-77
2023/10/14 07:50:33;;;;;;;11.03;8.73;;;14.80;99.90;;;;;;5114632;28;20174;-78
2023/10/14 07:53:07;;;;;;;15.57;7.70;;;15.00;99.90;;;;;;5116245;28;20202;-78
2023/10/14 07:55:56;;;;;;;10.70;7.13;;;15.10;99.90;;;;;;5113265;28;20165;-77
2023/10/14 07:58:27;;;;;;;7.93;6.60;;;15.20;99.90;;;;;;5113109;28;20197;-78
2023/10/14 08:00:53;;;;;;;10.47;6.83;;;15.30;99.90;;;;;;5114410;28;20170;-77
2023/10/14 08:03:28;;;;;;;12.83;7.07;;;15.40;99.90;;;;;;5113502;28;20264;-77
2023/10/14 08:05:59;;;;;;;9.93;6.90;;;15.50;99.90;;;;;;5113446;28;20168;-76
2023/10/14 08:08:30;;;;;;;9.17;7.23;;;15.50;99.90;;;;;;5113409;28;20233;-77
2023/10/14 08:11:00;;;;;;;8.60;6.47;;;15.60;99.90;;;;;;5113631;28;20155;-76
2023/10/14 08:13:26;;;;;;;13.07;7.20;;;15.70;99.90;;;;;;5112616;28;20194;-77
2023/10/14 08:15:54;;;;;;;8.73;6.60;;;15.80;99.90;;;;;;5112499;28;20178;-77
2023/10/14 08:18:23;;;;;;;11.20;6.57;;;15.90;99.90;;;;;;5112910;28;20227;-77
2023/10/14 08:20:53;;;;;;;7.63;6.03;;;15.90;99.90;;;;;;5113168;28;20260;-78
2023/10/14 08:23:20;;;;;;;8.70;6.13;;;16.10;99.90;;;;;;5113822;28;20182;-77
2023/10/14 08:25:46;;;;;;;8.30;6.07;;;16.10;99.90;;;;;;5117276;28;20613;-78
2023/10/14 08:28:12;;;;;;;10.03;6.53;;;16.20;99.90;;;;;;5119293;28;20186;-78
2023/10/14 08:30:45;;;;;;;8.40;6.13;;;16.30;99.90;;;;;;5094881;28;20301;-78
2023/10/14 08:33:14;;;;;;;9.90;5.90;;;16.30;99.90;;;;;;5113245;28;20201;-77
2023/10/14 08:35:44;;;;;;;9.67;6.33;;;16.40;99.90;;;;;;5112714;28;20192;-78
2023/10/14 08:38:14;;;;;;;6.63;5.77;;;16.50;99.90;;;;;;5112639;28;20177;-77
2023/10/14 08:40:49;;;;;;;9.17;5.90;;;16.60;99.90;;;;;;5113642;28;20617;-77
2023/10/14 08:43:22;;;;;;;9.10;5.50;;;16.70;99.90;;;;;;5095885;28;20180;-76
2023/10/14 08:45:49;;;;;;;8.47;6.27;;;16.80;99.90;;;;;;5111185;28;20170;-77
2023/10/14 08:48:23;;;;;;;11.30;6.77;;;16.90;99.90;;;;;;5111519;28;20260;-78
2023/10/14 08:50:52;;;;;;;11.40;7.70;;;17.00;99.90;;;;;;5135599;28;20149;-77
2023/10/14 08:53:21;;;;;;;9.07;6.73;;;17.10;99.90;;;;;;5129345;28;20208;-78
2023/10/14 08:55:48;;;;;;;9.73;6.50;;;17.10;99.90;;;;;;5118516;28;20181;-77
2023/10/14 08:58:14;;;;;;;7.50;6.37;;;17.20;99.90;;;;;;5118975;28;20197;-77
2023/10/14 09:00:43;;;;;;;8.47;6.20;;;17.30;99.90;;;;;;5115991;28;20176;-76
2023/10/14 09:03:10;;;;;;;18.37;12.50;;;17.40;99.90;;;;;;5116099;28;20537;-76
2023/10/14 09:05:44;;;;;;;9.33;6.93;;;17.40;99.90;;;;;;5098995;28;20280;-76
2023/10/14 09:08:19;;;;;;;8.90;6.47;;;17.50;99.90;;;;;;5117570;28;20157;-77
2023/10/14 09:10:45;;;;;;;8.17;6.80;;;17.60;99.90;;;;;;5116463;28;20164;-76
2023/10/14 09:13:20;;;;;;;10.63;7.10;;;17.70;99.90;;;;;;5122012;28;20217;-76
2023/10/14 09:15:47;;;;;;;10.90;7.47;;;17.70;99.90;;;;;;5102535;28;20200;-76
2023/10/14 09:18:19;;;;;;;9.83;6.90;;;17.80;99.90;;;;;;5116316;28;20165;-77
2023/10/14 09:20:53;;;;;;;11.47;6.33;;;17.90;99.90;;;;;;5116510;28;20222;-76
2023/10/14 09:23:27;;;;;;;7.47;6.70;;;18.00;99.90;;;;;;5115429;28;20166;-77
2023/10/14 09:25:55;;;;;;;10.60;6.40;;;18.10;99.90;;;;;;5118841;28;20211;-78
2023/10/14 09:28:33;;;;;;;10.67;6.30;;;18.20;99.90;;;;;;5121874;28;20170;-77
2023/10/14 09:31:00;;;;;;;7.17;6.20;;;18.20;99.90;;;;;;5120308;28;20170;-77
2023/10/14 09:33:32;;;;;;;7.30;6.20;;;18.30;99.90;;;;;;5116020;28;20205;-79
2023/10/14 09:36:04;;;;;;;7.07;5.93;;;18.40;99.90;;;;;;5116661;28;20167;-77
2023/10/14 09:38:34;;;;;;;7.80;6.00;;;18.50;99.90;;;;;;5134129;28;20134;-78
2023/10/14 09:41:05;;;;;;;8.70;6.27;;;18.60;99.90;;;;;;5129594;28;20166;-78
2023/10/14 09:43:32;;;;;;;9.13;6.47;;;18.70;99.90;;;;;;5116001;28;20151;-76
2023/10/14 09:46:08;;;;;;;11.07;6.27;;;18.70;99.90;;;;;;5115672;28;20170;-77
2023/10/14 09:48:35;;;;;;;10.80;6.23;;;18.80;99.90;;;;;;5126137;28;20165;-76
2023/10/14 09:51:07;;;;;;;8.87;5.73;;;18.90;99.90;;;;;;5116733;28;20180;-78
2023/10/14 09:53:36;;;;;;;6.83;5.57;;;19.00;99.90;;;;;;5115239;28;20189;-78
2023/10/14 09:56:04;;;;;;;9.33;5.63;;;19.10;99.90;;;;;;5115020;28;20189;-75
2023/10/14 09:58:34;;;;;;;6.30;5.43;;;19.20;99.90;;;;;;5115276;28;20507;-76
2023/10/14 10:01:04;;;;;;;9.03;5.27;;;19.20;99.90;;;;;;5114620;28;20179;-76
2023/10/14 10:03:38;;;;;;;9.53;6.07;;;19.30;99.90;;;;;;5115267;28;20201;-77
2023/10/14 10:06:21;;;;;;;14.17;8.33;;;19.30;99.90;;;;;;5115450;28;20162;-76
2023/10/14 10:09:22;;;;;;;8.87;5.97;;;19.40;99.90;;;;;;5115000;28;20161;-77
2023/10/14 10:11:51;;;;;;;7.43;6.23;;;19.50;99.90;;;;;;5115272;28;20153;-77
2023/10/14 10:14:19;;;;;;;10.27;6.73;;;19.70;99.90;;;;;;5114983;28;20202;-77
2023/10/14 10:16:49;;;;;;;10.07;6.60;;;19.80;99.90;;;;;;5114671;28;20166;-77
2023/10/14 10:19:16;;;;;;;9.87;6.03;;;19.80;99.90;;;;;;5114692;28;20234;-76
2023/10/14 10:22:17;;;;;;;8.77;6.40;;;19.80;99.90;;;;;;5117160;28;20180;-76
2023/10/14 10:24:46;;;;;;;11.17;9.00;;;19.90;99.90;;;;;;5120775;28;20169;-76
2023/10/14 10:27:12;;;;;;;9.50;5.60;;;20.00;99.90;;;;;;5114332;28;20162;-79
2023/10/14 10:30:07;;;;;;;9.30;5.87;;;20.00;99.90;;;;;;5096786;28;20173;-79
2023/10/14 10:32:38;;;;;;;6.00;5.40;;;20.00;99.90;;;;;;5093620;28;20182;-79
2023/10/14 10:35:07;;;;;;;10.50;5.97;;;20.00;99.90;;;;;;5114406;28;20154;-76
2023/10/14 10:37:39;;;;;;;7.30;4.90;;;20.10;99.90;;;;;;5114665;28;20169;-77
2023/10/14 10:40:12;;;;;;;7.30;5.20;;;20.30;99.90;;;;;;5095556;28;20592;-76
2023/10/14 10:43:11;;;;;;;7.47;5.30;;;20.40;99.90;;;;;;5113990;28;20166;-78
2023/10/14 10:45:42;;;;;;;7.83;5.13;;;20.40;99.90;;;;;;5114288;28;20211;-76
2023/10/14 10:48:14;;;;;;;8.93;5.73;;;20.50;99.90;;;;;;5113873;28;20241;-76
2023/10/14 10:50:41;;;;;;;10.57;5.70;;;20.50;99.90;;;;;;5113818;28;20158;-77
2023/10/14 10:53:07;;;;;;;8.67;5.37;;;20.40;99.90;;;;;;5114449;28;20236;-78
2023/10/14 10:55:38;;;;;;;7.53;5.83;;;20.40;99.90;;;;;;5097924;28;20181;-77
2023/10/14 10:58:06;;;;;;;8.23;5.20;;;20.50;99.90;;;;;;5129337;28;20185;-76
2023/10/14 11:00:32;;;;;;;5.33;4.93;;;20.60;99.90;;;;;;5118927;28;20170;-78
2023/10/14 11:03:02;;;;;;;5.60;5.07;;;20.70;99.90;;;;;;5114419;28;20178;-76
2023/10/14 11:05:29;;;;;;;7.23;5.13;;;20.80;99.90;;;;;;5114691;28;20181;-77
2023/10/14 11:08:00;;;;;;;5.40;4.90;;;20.60;99.90;;;;;;5115895;28;20176;-76
2023/10/14 11:10:29;;;;;;;5.67;5.00;;;20.90;99.90;;;;;;5124077;28;20204;-77
2023/10/14 11:12:56;;;;;;;5.83;5.20;;;20.90;99.90;;;;;;5116901;28;20193;-78
2023/10/14 11:15:23;;;;;;;8.37;5.30;;;21.00;99.90;;;;;;5114146;28;20265;-78
2023/10/14 11:17:59;;;;;;;5.47;4.97;;;21.10;99.90;;;;;;5113530;28;20155;-77
2023/10/14 11:20:40;;;;;;;6.53;5.40;;;21.20;99.90;;;;;;5113604;28;20313;-77
2023/10/14 11:23:10;;;;;;;7.67;5.13;;;21.20;99.90;;;;;;5113675;28;20162;-75
2023/10/14 11:25:46;;;;;;;10.60;6.27;;;21.20;99.90;;;;;;5113638;28;20185;-77
2023/10/14 11:28:14;;;;;;;5.80;5.20;;;21.30;99.90;;;;;;5095647;28;20193;-78
2023/10/14 11:30:46;;;;;;;6.10;5.50;;;21.30;99.90;;;;;;5134291;28;20173;-76
2023/10/14 11:33:14;;;;;;;5.30;4.80;;;21.40;99.90;;;;;;5118458;28;20202;-77
2023/10/14 11:35:40;;;;;;;6.50;5.33;;;21.50;99.90;;;;;;5114511;28;20172;-76
2023/10/14 11:38:08;;;;;;;5.67;5.07;;;21.40;99.90;;;;;;5095328;28;20527;-77
2023/10/14 11:40:35;;;;;;;5.70;5.07;;;21.40;99.90;;;;;;5113589;28;20192;-78
2023/10/14 11:43:00;;;;;;;7.50;5.07;;;21.40;99.90;;;;;;5113614;28;20174;-76
2023/10/14 11:45:26;;;;;;;7.00;5.00;;;21.50;99.50;;;;;;5113308;28;20168;-77
2023/10/14 11:47:52;;;;;;;5.00;4.47;;;21.60;99.70;;;;;;5113380;28;20507;-79
2023/10/14 11:50:18;;;;;;;6.03;5.43;;;21.70;99.10;;;;;;5113770;28;20166;-77
2023/10/14 11:52:52;;;;;;;7.83;4.50;;;21.70;99.20;;;;;;5094871;28;20212;-75
2023/10/14 11:55:19;;;;;;;5.60;5.10;;;21.60;99.30;;;;;;5113089;28;20162;-76
2023/10/14 11:57:48;;;;;;;5.60;5.10;;;21.60;99.70;;;;;;5095031;28;20165;-76
2023/10/14 12:00:20;;;;;;;6.97;5.40;;;21.50;99.80;;;;;;5122385;28;20204;-78
2023/10/14 12:02:46;;;;;;;8.20;6.17;;;21.60;99.90;;;;;;5099715;28;20195;-77
2023/10/14 12:05:13;;;;;;;10.50;6.33;;;21.60;99.90;;;;;;5113061;28;20169;-76
2023/10/14 12:07:39;;;;;;;8.07;6.93;;;21.60;99.90;;;;;;5095226;28;20185;-78
2023/10/14 12:10:06;;;;;;;6.93;6.00;;;21.60;99.90;;;;;;5113031;28;20170;-76
2023/10/14 12:12:32;;;;;;;8.00;6.75;;;21.60;99.90;;;;;;5113018;28;20168;-76
2023/10/14 12:15:05;;;;;;;6.73;6.03;;;21.60;99.90;;;;;;5113076;28;20170;-77
2023/10/14 12:17:34;;;;;;;8.27;6.63;;;21.70;99.90;;;;;;5113552;28;20249;-76
2023/10/14 12:20:04;;;;;;;7.27;5.80;;;21.60;99.90;;;;;;5111914;28;20221;-77
2023/10/14 12:22:30;;;;;;;7.73;5.37;;;21.60;99.90;;;;;;5112872;28;20512;-77
2023/10/14 12:24:56;;;;;;;9.57;6.10;;;21.60;99.90;;;;;;5114477;28;20717;-76
2023/10/14 12:27:25;;;;;;;12.03;5.73;;;21.60;99.90;;;;;;5116895;28;20162;-77
2023/10/14 12:29:52;;;;;;;7.83;6.30;;;21.70;99.90;;;;;;5116652;28;20579;-79
2023/10/14 12:32:18;;;;;;;8.90;5.77;;;21.70;99.90;;;;;;5101264;28;20174;-80
2023/10/14 12:34:46;;;;;;;9.27;6.20;;;21.70;99.90;;;;;;5121907;28;20238;-77
2023/10/14 12:37:24;;;;;;;7.80;7.07;;;21.70;99.90;;;;;;5117830;28;20166;-77
2023/10/14 12:40:04;;;;;;;7.43;5.90;;;21.70;99.90;;;;;;5117741;28;20158;-76
2023/10/14 12:42:45;;;;;;;6.77;6.17;;;21.70;99.90;;;;;;5127456;28;20195;-77
2023/10/14 12:45:22;;;;;;;7.63;5.97;;;21.70;99.90;;;;;;5117066;28;20189;-78
2023/10/14 12:47:48;;;;;;;9.10;5.83;;;21.80;99.90;;;;;;5117123;28;20202;-77
2023/10/14 12:50:15;;;;;;;7.97;6.03;;;21.80;99.90;;;;;;5101576;28;20183;-77
2023/10/14 12:52:42;;;;;;;11.00;7.07;;;21.80;99.90;;;;;;5115791;28;20247;-78
2023/10/14 12:55:17;;;;;;;12.80;6.50;;;21.90;99.90;;;;;;5115828;28;20169;-78
2023/10/14 12:57:44;;;;;;;9.20;5.72;;;21.80;99.90;;;;;;5120274;28;20177;-78
2023/10/14 13:00:19;;;;;;;7.00;6.13;;;21.90;99.90;;;;;;5116706;28;20170;-79
2023/10/14 13:02:45;;;;;;;6.10;5.50;;;22.10;99.90;;;;;;5126625;28;20208;-76
2023/10/14 13:05:14;;;;;;;7.07;5.38;;;22.20;99.90;;;;;;5099179;28;20182;-76
2023/10/14 13:07:40;;;;;;;6.45;5.72;;;22.20;99.90;;;;;;5118325;28;20178;-76
2023/10/14 13:10:08;;;;;;;8.73;6.40;;;22.20;99.90;;;;;;5118065;28;20166;-77
2023/10/14 13:12:34;;;;;;;14.45;6.80;;;22.20;99.90;;;;;;5117848;28;20533;-77
2023/10/14 13:15:05;;;;;;;7.88;6.90;;;22.10;99.90;;;;;;5117913;28;20176;-78
2023/10/14 13:17:35;;;;;;;7.40;6.47;;;22.10;99.90;;;;;;5115969;28;20520;-77
2023/10/14 13:20:01;;;;;;;10.70;9.27;;;22.10;99.90;;;;;;5115327;28;20226;-77
2023/10/14 13:22:29;;;;;;;9.80;6.75;;;22.10;99.90;;;;;;5115835;28;20162;-77
2023/10/14 13:24:55;;;;;;;7.53;6.28;;;22.00;99.90;;;;;;5115864;28;20257;-77
2023/10/14 13:27:21;;;;;;;7.05;6.32;;;22.00;99.90;;;;;;5123216;28;20169;-77
2023/10/14 13:29:47;;;;;;;7.13;6.00;;;22.00;99.90;;;;;;5120531;28;20166;-76
2023/10/14 13:32:16;;;;;;;8.43;6.03;;;22.10;99.90;;;;;;5115655;28;20162;-79
2023/10/14 13:34:45;;;;;;;8.50;6.57;;;22.20;99.90;;;;;;5115530;28;20201;-77
2023/10/14 13:37:13;;;;;;;7.70;6.18;;;22.30;99.90;;;;;;5102118;28;20632;-76